sensor_id;sensor_type;location;lat;lon;timestamp;temperature;humidity
23721;DHT22;42950;52.134;5.578;2024-03-25T00:01:42;5.50;99.90
23721;DHT22;42950;52.134;5.578;2024-03-25T00:04:07;5.50;99.90
23721;DHT22;42950;52.134;5.578;2024-03-25T00:06:33;5.50;99.90
23721;DHT22;42950;52.134;5.578;2024-03-25T00:09:03;5.60;99.90
23721;DHT22;42950;52.134;5.578;2024-03-25T00:11:29;5.50;99.90
23721;DHT22;42950;52.134;5.578;2024-03-25T00:13:54;5.50;99.90
23721;DHT22;42950;52.134;5.578;2024-03-25T00:16:20;5.60;99.90
23721;DHT22;42950;52.134;5.578;2024-03-25T00:18:46;5.60;99.90
23721;DHT22;42950;52.134;5.578;2024-03-25T00:21:11;5.60;99.90
23721;DHT22;42950;52.134;5.578;2024-03-25T00:23:37;5.50;99.90
23721;DHT22;42950;52.134;5.578;2024-03-25T00:26:02;5.40;99.90
23721;DHT22;42950;52.134;5.578;2024-03-25T00:28:28;5.40;99.90
23721;DHT22;42950;52.134;5.578;2024-03-25T00:30:54;5.40;99.90
23721;DHT22;42950;52.134;5.578;2024-03-25T00:33:19;5.40;99.90
23721;DHT22;42950;52.134;5.578;2024-03-25T00:35:45;5.30;99.90
23721;DHT22;42950;52.134;5.578;2024-03-25T00:38:11;5.40;99.90
23721;DHT22;42950;52.134;5.578;2024-03-25T00:40:37;5.30;99.90
23721;DHT22;42950;52.134;5.578;2024-03-25T00:43:03;5.30;99.90
23721;DHT22;42950;52.134;5.578;2024-03-25T00:45:29;5.30;99.90
23721;DHT22;42950;52.134;5.578;2024-03-25T00:47:59;5.30;99.90
23721;DHT22;42950;52.134;5.578;2024-03-25T00:50:25;5.30;99.90
23721;DHT22;42950;52.134;5.578;2024-03-25T00:52:51;5.20;99.90
23721;DHT22;42950;52.134;5.578;2024-03-25T00:55:17;5.20;99.90
23721;DHT22;42950;52.134;5.578;2024-03-25T00:57:43;5.20;99.90
23721;DHT22;42950;52.134;5.578;2024-03-25T01:00:09;5.30;99.90
23721;DHT22;42950;52.134;5.578;2024-03-25T01:02:35;5.20;99.90
23721;DHT22;42950;52.134;5.578;2024-03-25T01:05:00;5.20;99.90
23721;DHT22;42950;52.134;5.578;2024-03-25T01:07:26;5.10;99.90
23721;DHT22;42950;52.134;5.578;2024-03-25T01:09:51;5.10;99.90
23721;DHT22;42950;52.134;5.578;2024-03-25T01:12:17;5.10;99.90
23721;DHT22;42950;52.134;5.578;2024-03-25T01:14:42;5.00;99.90
23721;DHT22;42950;52.134;5.578;2024-03-25T01:17:08;4.90;99.90
23721;DHT22;42950;52.134;5.578;2024-03-25T01:19:34;5.00;99.90
23721;DHT22;42950;52.134;5.578;2024-03-25T01:21:59;5.00;99.90
23721;DHT22;42950;52.134;5.578;2024-03-25T01:24:25;4.90;99.90
23721;DHT22;42950;52.134;5.578;2024-03-25T01:26:50;4.80;99.90
23721;DHT22;42950;52.134;5.578;2024-03-25T01:29:16;4.80;99.90
23721;DHT22;42950;52.134;5.578;2024-03-25T01:31:42;4.80;99.90
23721;DHT22;42950;52.134;5.578;2024-03-25T01:34:08;4.80;99.90
23721;DHT22;42950;52.134;5.578;2024-03-25T01:36:33;4.80;99.90
23721;DHT22;42950;52.134;5.578;2024-03-25T01:39:00;4.80;99.90
23721;DHT22;42950;52.134;5.578;2024-03-25T01:41:26;4.80;99.90
23721;DHT22;42950;52.134;5.578;2024-03-25T01:43:52;4.80;99.90
23721;DHT22;42950;52.134;5.578;2024-03-25T01:46:18;4.70;99.90
23721;DHT22;42950;52.134;5.578;2024-03-25T01:48:45;4.80;99.90
23721;DHT22;42950;52.134;5.578;2024-03-25T01:51:12;4.70;99.90
23721;DHT22;42950;52.134;5.578;2024-03-25T01:53:38;4.70;99.90
23721;DHT22;42950;52.134;5.578;2024-03-25T01:56:04;4.60;99.90
23721;DHT22;42950;52.134;5.578;2024-03-25T01:58:30;4.60;99.90
23721;DHT22;42950;52.134;5.578;2024-03-25T02:00:58;4.50;99.90
23721;DHT22;42950;52.134;5.578;2024-03-25T02:03:27;4.50;99.90
23721;DHT22;42950;52.134;5.578;2024-03-25T02:05:58;4.40;99.90
23721;DHT22;42950;52.134;5.578;2024-03-25T02:08:26;4.30;99.90
23721;DHT22;42950;52.134;5.578;2024-03-25T02:10:54;4.30;99.90
23721;DHT22;42950;52.134;5.578;2024-03-25T02:13:21;4.30;99.90
23721;DHT22;42950;52.134;5.578;2024-03-25T02:15:47;4.40;99.90
23721;DHT22;42950;52.134;5.578;2024-03-25T02:18:16;4.40;99.90
23721;DHT22;42950;52.134;5.578;2024-03-25T02:20:42;4.50;99.90
23721;DHT22;42950;52.134;5.578;2024-03-25T02:23:08;4.50;99.90
23721;DHT22;42950;52.134;5.578;2024-03-25T02:25:36;4.50;99.90
23721;DHT22;42950;52.134;5.578;2024-03-25T02:28:03;4.50;99.90
23721;DHT22;42950;52.134;5.578;2024-03-25T02:30:29;4.60;99.90
23721;DHT22;42950;52.134;5.578;2024-03-25T02:32:54;4.60;99.90
23721;DHT22;42950;52.134;5.578;2024-03-25T02:35:21;4.60;99.90
23721;DHT22;42950;52.134;5.578;2024-03-25T02:37:49;4.60;99.90
23721;DHT22;42950;52.134;5.578;2024-03-25T02:40:15;4.60;99.90
23721;DHT22;42950;52.134;5.578;2024-03-25T02:42:41;4.70;99.90
23721;DHT22;42950;52.134;5.578;2024-03-25T02:45:07;4.70;99.90
23721;DHT22;42950;52.134;5.578;2024-03-25T02:47:33;4.70;99.90
23721;DHT22;42950;52.134;5.578;2024-03-25T02:49:58;4.80;99.90
23721;DHT22;42950;52.134;5.578;2024-03-25T02:52:24;4.80;99.90
23721;DHT22;42950;52.134;5.578;2024-03-25T02:54:50;4.80;99.90
23721;DHT22;42950;52.134;5.578;2024-03-25T02:57:15;4.80;99.90
23721;DHT22;42950;52.134;5.578;2024-03-25T02:59:41;4.70;99.90
23721;DHT22;42950;52.134;5.578;2024-03-25T03:02:07;4.80;99.90
23721;DHT22;42950;52.134;5.578;2024-03-25T03:04:33;4.80;99.90
23721;DHT22;42950;52.134;5.578;2024-03-25T03:06:58;4.80;99.90
23721;DHT22;42950;52.134;5.578;2024-03-25T03:09:24;4.80;99.90
23721;DHT22;42950;52.134;5.578;2024-03-25T03:11:49;4.80;99.90
23721;DHT22;42950;52.134;5.578;2024-03-25T03:14:15;4.80;99.90
23721;DHT22;42950;52.134;5.578;2024-03-25T03:16:40;4.80;99.90
23721;DHT22;42950;52.134;5.578;2024-03-25T03:19:06;4.80;99.90
23721;DHT22;42950;52.134;5.578;2024-03-25T03:21:31;4.80;99.90
23721;DHT22;42950;52.134;5.578;2024-03-25T03:23:57;4.80;99.90
23721;DHT22;42950;52.134;5.578;2024-03-25T03:26:23;4.70;99.90
23721;DHT22;42950;52.134;5.578;2024-03-25T03:28:53;4.60;99.90
23721;DHT22;42950;52.134;5.578;2024-03-25T03:31:18;4.60;99.90
23721;DHT22;42950;52.134;5.578;2024-03-25T03:33:50;4.60;99.90
23721;DHT22;42950;52.134;5.578;2024-03-25T03:36:17;4.60;99.90
23721;DHT22;42950;52.134;5.578;2024-03-25T03:38:43;4.60;99.90
23721;DHT22;42950;52.134;5.578;2024-03-25T03:41:08;4.60;99.90
23721;DHT22;42950;52.134;5.578;2024-03-25T03:43:34;4.60;99.90
23721;DHT22;42950;52.134;5.578;2024-03-25T03:45:59;4.60;99.90
23721;DHT22;42950;52.134;5.578;2024-03-25T03:48:25;4.60;99.90
23721;DHT22;42950;52.134;5.578;2024-03-25T03:50:51;4.50;99.90
23721;DHT22;42950;52.134;5.578;2024-03-25T03:53:17;4.50;99.90
23721;DHT22;42950;52.134;5.578;2024-03-25T03:55:56;4.40;99.90
23721;DHT22;42950;52.134;5.578;2024-03-25T03:58:22;4.40;99.90
23721;DHT22;42950;52.134;5.578;2024-03-25T04:00:48;4.40;99.90
23721;DHT22;42950;52.134;5.578;2024-03-25T04:03:13;4.40;99.90
23721;DHT22;42950;52.134;5.578;2024-03-25T04:05:39;4.40;99.90
23721;DHT22;42950;52.134;5.578;2024-03-25T04:08:05;4.40;99.90
23721;DHT22;42950;52.134;5.578;2024-03-25T04:10:31;4.30;99.90
23721;DHT22;42950;52.134;5.578;2024-03-25T04:12:56;4.20;99.90
23721;DHT22;42950;52.134;5.578;2024-03-25T04:15:22;4.30;99.90
23721;DHT22;42950;52.134;5.578;2024-03-25T04:17:48;4.30;99.90
23721;DHT22;42950;52.134;5.578;2024-03-25T04:20:15;4.30;99.90
23721;DHT22;42950;52.134;5.578;2024-03-25T04:22:42;4.30;99.90
23721;DHT22;42950;52.134;5.578;2024-03-25T04:25:08;4.30;99.90
23721;DHT22;42950;52.134;5.578;2024-03-25T04:27:39;4.30;99.90
23721;DHT22;42950;52.134;5.578;2024-03-25T04:30:06;4.30;99.90
23721;DHT22;42950;52.134;5.578;2024-03-25T04:32:32;4.30;99.90
23721;DHT22;42950;52.134;5.578;2024-03-25T04:34:58;4.20;99.90
23721;DHT22;42950;52.134;5.578;2024-03-25T04:37:24;4.20;99.90
23721;DHT22;42950;52.134;5.578;2024-03-25T04:39:49;4.20;99.90
23721;DHT22;42950;52.134;5.578;2024-03-25T04:42:15;4.20;99.90
23721;DHT22;42950;52.134;5.578;2024-03-25T04:44:40;4.20;99.90
23721;DHT22;42950;52.134;5.578;2024-03-25T04:47:06;4.20;99.90
23721;DHT22;42950;52.134;5.578;2024-03-25T04:49:31;4.20;99.90
23721;DHT22;42950;52.134;5.578;2024-03-25T04:51:57;4.20;99.90
23721;DHT22;42950;52.134;5.578;2024-03-25T04:54:22;4.20;99.90
23721;DHT22;42950;52.134;5.578;2024-03-25T04:56:48;4.10;99.90
23721;DHT22;42950;52.134;5.578;2024-03-25T04:59:13;4.10;99.90
23721;DHT22;42950;52.134;5.578;2024-03-25T05:01:39;4.10;99.90
23721;DHT22;42950;52.134;5.578;2024-03-25T05:04:05;4.10;99.90
23721;DHT22;42950;52.134;5.578;2024-03-25T05:06:34;4.00;99.90
23721;DHT22;42950;52.134;5.578;2024-03-25T05:09:00;4.00;99.90
23721;DHT22;42950;52.134;5.578;2024-03-25T05:11:25;4.00;99.90
23721;DHT22;42950;52.134;5.578;2024-03-25T05:13:51;4.00;99.90
23721;DHT22;42950;52.134;5.578;2024-03-25T05:16:16;3.90;99.90
23721;DHT22;42950;52.134;5.578;2024-03-25T05:18:42;3.90;99.90
23721;DHT22;42950;52.134;5.578;2024-03-25T05:21:08;3.90;99.90
23721;DHT22;42950;52.134;5.578;2024-03-25T05:23:33;3.90;99.90
23721;DHT22;42950;52.134;5.578;2024-03-25T05:25:59;3.90;99.90
23721;DHT22;42950;52.134;5.578;2024-03-25T05:28:24;3.80;99.90
23721;DHT22;42950;52.134;5.578;2024-03-25T05:30:50;3.80;99.90
23721;DHT22;42950;52.134;5.578;2024-03-25T05:33:15;3.80;99.90
23721;DHT22;42950;52.134;5.578;2024-03-25T05:35:41;3.80;99.90
23721;DHT22;42950;52.134;5.578;2024-03-25T05:38:07;3.80;99.90
23721;DHT22;42950;52.134;5.578;2024-03-25T05:40:32;3.70;99.90
23721;DHT22;42950;52.134;5.578;2024-03-25T05:42:58;3.70;99.90
23721;DHT22;42950;52.134;5.578;2024-03-25T05:45:24;3.70;99.90
23721;DHT22;42950;52.134;5.578;2024-03-25T05:47:52;3.70;99.90
23721;DHT22;42950;52.134;5.578;2024-03-25T05:50:18;3.70;99.90
23721;DHT22;42950;52.134;5.578;2024-03-25T05:52:43;3.70;99.90
23721;DHT22;42950;52.134;5.578;2024-03-25T05:55:09;3.70;99.90
23721;DHT22;42950;52.134;5.578;2024-03-25T05:57:38;3.60;99.90
23721;DHT22;42950;52.134;5.578;2024-03-25T06:00:03;3.60;99.90
23721;DHT22;42950;52.134;5.578;2024-03-25T06:02:29;3.60;99.90
23721;DHT22;42950;52.134;5.578;2024-03-25T06:04:55;3.60;99.90
23721;DHT22;42950;52.134;5.578;2024-03-25T06:07:22;3.60;99.90
23721;DHT22;42950;52.134;5.578;2024-03-25T06:09:48;3.60;99.90
23721;DHT22;42950;52.134;5.578;2024-03-25T06:12:13;3.70;99.90
23721;DHT22;42950;52.134;5.578;2024-03-25T06:14:39;3.70;99.90
23721;DHT22;42950;52.134;5.578;2024-03-25T06:17:05;3.70;99.90
23721;DHT22;42950;52.134;5.578;2024-03-25T06:19:30;3.80;99.90
23721;DHT22;42950;52.134;5.578;2024-03-25T06:21:56;3.80;99.90
23721;DHT22;42950;52.134;5.578;2024-03-25T06:24:22;3.80;99.90
23721;DHT22;42950;52.134;5.578;2024-03-25T06:26:47;3.90;99.90
23721;DHT22;42950;52.134;5.578;2024-03-25T06:29:13;3.90;99.90
23721;DHT22;42950;52.134;5.578;2024-03-25T06:31:38;3.90;99.90
23721;DHT22;42950;52.134;5.578;2024-03-25T06:34:22;4.00;99.90
23721;DHT22;42950;52.134;5.578;2024-03-25T06:36:49;4.10;99.90
23721;DHT22;42950;52.134;5.578;2024-03-25T06:39:15;4.10;99.90
23721;DHT22;42950;52.134;5.578;2024-03-25T06:41:40;4.10;99.90
23721;DHT22;42950;52.134;5.578;2024-03-25T06:44:06;4.10;99.90
23721;DHT22;42950;52.134;5.578;2024-03-25T06:46:32;4.10;99.90
23721;DHT22;42950;52.134;5.578;2024-03-25T06:48:58;4.10;99.90
23721;DHT22;42950;52.134;5.578;2024-03-25T06:51:24;4.10;99.90
23721;DHT22;42950;52.134;5.578;2024-03-25T06:53:50;4.10;99.90
23721;DHT22;42950;52.134;5.578;2024-03-25T06:56:16;4.20;99.90
23721;DHT22;42950;52.134;5.578;2024-03-25T06:58:42;4.20;99.90
23721;DHT22;42950;52.134;5.578;2024-03-25T07:01:09;4.30;99.90
23721;DHT22;42950;52.134;5.578;2024-03-25T07:03:38;4.30;99.90
23721;DHT22;42950;52.134;5.578;2024-03-25T07:06:04;4.30;99.90
23721;DHT22;42950;52.134;5.578;2024-03-25T07:08:31;4.40;99.90
23721;DHT22;42950;52.134;5.578;2024-03-25T07:10:57;4.40;99.90
23721;DHT22;42950;52.134;5.578;2024-03-25T07:13:23;4.40;99.90
23721;DHT22;42950;52.134;5.578;2024-03-25T07:15:49;4.50;99.90
23721;DHT22;42950;52.134;5.578;2024-03-25T07:18:14;4.60;99.90
23721;DHT22;42950;52.134;5.578;2024-03-25T07:20:42;4.60;99.90
23721;DHT22;42950;52.134;5.578;2024-03-25T07:23:09;4.70;99.90
23721;DHT22;42950;52.134;5.578;2024-03-25T07:25:34;4.80;99.90
23721;DHT22;42950;52.134;5.578;2024-03-25T07:28:00;4.90;99.90
23721;DHT22;42950;52.134;5.578;2024-03-25T07:30:26;4.90;99.90
23721;DHT22;42950;52.134;5.578;2024-03-25T07:32:55;5.00;99.90
23721;DHT22;42950;52.134;5.578;2024-03-25T07:35:21;5.10;99.90
23721;DHT22;42950;52.134;5.578;2024-03-25T07:37:46;5.10;99.90
23721;DHT22;42950;52.134;5.578;2024-03-25T07:40:12;5.10;99.90
23721;DHT22;42950;52.134;5.578;2024-03-25T07:42:39;5.20;99.90
23721;DHT22;42950;52.134;5.578;2024-03-25T07:45:05;5.30;99.90
23721;DHT22;42950;52.134;5.578;2024-03-25T07:47:31;5.40;99.90
23721;DHT22;42950;52.134;5.578;2024-03-25T07:49:57;5.50;99.90
23721;DHT22;42950;52.134;5.578;2024-03-25T07:52:24;5.60;99.90
23721;DHT22;42950;52.134;5.578;2024-03-25T07:54:50;5.70;99.90
23721;DHT22;42950;52.134;5.578;2024-03-25T07:57:17;5.70;99.90
23721;DHT22;42950;52.134;5.578;2024-03-25T07:59:43;5.90;99.90
23721;DHT22;42950;52.134;5.578;2024-03-25T08:02:09;6.00;99.90
23721;DHT22;42950;52.134;5.578;2024-03-25T08:04:34;6.10;99.90
23721;DHT22;42950;52.134;5.578;2024-03-25T08:07:00;6.10;99.90
23721;DHT22;42950;52.134;5.578;2024-03-25T08:09:25;6.20;99.90
23721;DHT22;42950;52.134;5.578;2024-03-25T08:11:51;6.40;99.90
23721;DHT22;42950;52.134;5.578;2024-03-25T08:14:16;6.50;99.90
23721;DHT22;42950;52.134;5.578;2024-03-25T08:16:42;6.60;99.90
23721;DHT22;42950;52.134;5.578;2024-03-25T08:19:07;6.70;99.90
23721;DHT22;42950;52.134;5.578;2024-03-25T08:21:33;6.80;99.90
23721;DHT22;42950;52.134;5.578;2024-03-25T08:23:58;6.90;99.90
23721;DHT22;42950;52.134;5.578;2024-03-25T08:26:24;7.00;99.90
23721;DHT22;42950;52.134;5.578;2024-03-25T08:28:50;7.10;99.90
23721;DHT22;42950;52.134;5.578;2024-03-25T08:31:15;7.20;99.90
23721;DHT22;42950;52.134;5.578;2024-03-25T08:33:41;7.30;99.90
23721;DHT22;42950;52.134;5.578;2024-03-25T08:36:07;7.40;99.90
23721;DHT22;42950;52.134;5.578;2024-03-25T08:38:33;7.50;99.90
23721;DHT22;42950;52.134;5.578;2024-03-25T08:40:58;7.60;99.90
23721;DHT22;42950;52.134;5.578;2024-03-25T08:43:24;7.70;99.90
23721;DHT22;42950;52.134;5.578;2024-03-25T08:45:49;7.80;99.90
23721;DHT22;42950;52.134;5.578;2024-03-25T08:48:15;7.80;99.90
23721;DHT22;42950;52.134;5.578;2024-03-25T08:50:40;8.00;99.90
23721;DHT22;42950;52.134;5.578;2024-03-25T08:53:06;8.10;99.90
23721;DHT22;42950;52.134;5.578;2024-03-25T08:55:32;8.30;99.90
23721;DHT22;42950;52.134;5.578;2024-03-25T08:57:57;8.40;99.90
23721;DHT22;42950;52.134;5.578;2024-03-25T09:00:29;8.50;99.90
23721;DHT22;42950;52.134;5.578;2024-03-25T09:02:54;8.60;99.90
23721;DHT22;42950;52.134;5.578;2024-03-25T09:05:21;8.60;99.90
23721;DHT22;42950;52.134;5.578;2024-03-25T09:07:49;8.70;99.90
23721;DHT22;42950;52.134;5.578;2024-03-25T09:10:19;8.70;99.90
23721;DHT22;42950;52.134;5.578;2024-03-25T09:13:03;8.80;99.90
23721;DHT22;42950;52.134;5.578;2024-03-25T09:15:29;8.80;99.90
23721;DHT22;42950;52.134;5.578;2024-03-25T09:17:55;8.90;99.90
23721;DHT22;42950;52.134;5.578;2024-03-25T09:20:21;9.00;99.90
23721;DHT22;42950;52.134;5.578;2024-03-25T09:22:47;9.10;99.90
23721;DHT22;42950;52.134;5.578;2024-03-25T09:25:16;9.10;99.90
23721;DHT22;42950;52.134;5.578;2024-03-25T09:27:46;9.10;99.90
23721;DHT22;42950;52.134;5.578;2024-03-25T09:30:12;9.00;99.90
23721;DHT22;42950;52.134;5.578;2024-03-25T09:32:39;9.00;99.90
23721;DHT22;42950;52.134;5.578;2024-03-25T09:35:05;9.20;99.90
23721;DHT22;42950;52.134;5.578;2024-03-25T09:37:30;9.20;99.90
23721;DHT22;42950;52.134;5.578;2024-03-25T09:39:57;9.30;99.90
23721;DHT22;42950;52.134;5.578;2024-03-25T09:42:28;9.30;99.90
23721;DHT22;42950;52.134;5.578;2024-03-25T09:44:55;9.50;99.90
23721;DHT22;42950;52.134;5.578;2024-03-25T09:47:21;9.70;99.90
23721;DHT22;42950;52.134;5.578;2024-03-25T09:49:47;9.60;99.90
23721;DHT22;42950;52.134;5.578;2024-03-25T09:52:14;9.70;99.90
23721;DHT22;42950;52.134;5.578;2024-03-25T09:54:40;9.60;99.90
23721;DHT22;42950;52.134;5.578;2024-03-25T09:57:06;9.60;99.90
23721;DHT22;42950;52.134;5.578;2024-03-25T09:59:33;9.80;99.90
23721;DHT22;42950;52.134;5.578;2024-03-25T10:01:59;9.90;99.90
23721;DHT22;42950;52.134;5.578;2024-03-25T10:04:26;10.20;99.90
23721;DHT22;42950;52.134;5.578;2024-03-25T10:06:52;10.20;99.90
23721;DHT22;42950;52.134;5.578;2024-03-25T10:09:21;10.00;99.90
23721;DHT22;42950;52.134;5.578;2024-03-25T10:11:49;10.10;99.90
23721;DHT22;42950;52.134;5.578;2024-03-25T10:14:16;10.10;99.90
23721;DHT22;42950;52.134;5.578;2024-03-25T10:16:42;10.20;99.90
23721;DHT22;42950;52.134;5.578;2024-03-25T10:19:08;10.30;99.90
23721;DHT22;42950;52.134;5.578;2024-03-25T10:21:34;10.30;99.90
23721;DHT22;42950;52.134;5.578;2024-03-25T10:23:59;10.30;99.90
23721;DHT22;42950;52.134;5.578;2024-03-25T10:26:26;10.40;99.90
23721;DHT22;42950;52.134;5.578;2024-03-25T10:29:03;10.50;99.90
23721;DHT22;42950;52.134;5.578;2024-03-25T10:31:30;10.60;99.90
23721;DHT22;42950;52.134;5.578;2024-03-25T10:33:55;10.70;99.90
23721;DHT22;42950;52.134;5.578;2024-03-25T10:36:22;10.80;99.90
23721;DHT22;42950;52.134;5.578;2024-03-25T10:38:56;10.80;99.90
23721;DHT22;42950;52.134;5.578;2024-03-25T10:41:22;10.80;99.90
23721;DHT22;42950;52.134;5.578;2024-03-25T10:43:48;10.80;99.90
23721;DHT22;42950;52.134;5.578;2024-03-25T10:46:22;10.80;99.90
23721;DHT22;42950;52.134;5.578;2024-03-25T10:48:57;10.90;99.90
23721;DHT22;42950;52.134;5.578;2024-03-25T10:51:26;11.00;99.90
23721;DHT22;42950;52.134;5.578;2024-03-25T10:53:54;10.90;99.90
23721;DHT22;42950;52.134;5.578;2024-03-25T10:56:21;11.20;99.90
23721;DHT22;42950;52.134;5.578;2024-03-25T10:58:49;11.20;99.90
23721;DHT22;42950;52.134;5.578;2024-03-25T11:01:18;11.10;99.90
23721;DHT22;42950;52.134;5.578;2024-03-25T11:03:46;11.10;99.90
23721;DHT22;42950;52.134;5.578;2024-03-25T11:06:13;11.30;99.90
23721;DHT22;42950;52.134;5.578;2024-03-25T11:08:39;11.50;99.90
23721;DHT22;42950;52.134;5.578;2024-03-25T11:11:07;11.70;99.90
23721;DHT22;42950;52.134;5.578;2024-03-25T11:13:33;12.00;99.90
23721;DHT22;42950;52.134;5.578;2024-03-25T11:15:58;12.10;99.90
23721;DHT22;42950;52.134;5.578;2024-03-25T11:18:25;12.40;99.90
23721;DHT22;42950;52.134;5.578;2024-03-25T11:21:07;12.40;99.90
23721;DHT22;42950;52.134;5.578;2024-03-25T11:23:43;12.40;99.90
23721;DHT22;42950;52.134;5.578;2024-03-25T11:26:26;12.50;99.90
23721;DHT22;42950;52.134;5.578;2024-03-25T11:28:52;12.50;99.90
23721;DHT22;42950;52.134;5.578;2024-03-25T11:31:21;12.30;99.90
23721;DHT22;42950;52.134;5.578;2024-03-25T11:33:50;12.60;99.90
23721;DHT22;42950;52.134;5.578;2024-03-25T11:36:16;12.50;99.90
23721;DHT22;42950;52.134;5.578;2024-03-25T11:38:43;12.70;99.90
23721;DHT22;42950;52.134;5.578;2024-03-25T11:41:10;12.90;99.90
23721;DHT22;42950;52.134;5.578;2024-03-25T11:43:36;12.90;99.90
23721;DHT22;42950;52.134;5.578;2024-03-25T11:46:02;13.00;99.90
23721;DHT22;42950;52.134;5.578;2024-03-25T11:48:29;13.30;99.90
23721;DHT22;42950;52.134;5.578;2024-03-25T11:50:55;13.50;99.90
23721;DHT22;42950;52.134;5.578;2024-03-25T11:53:20;13.60;99.90
23721;DHT22;42950;52.134;5.578;2024-03-25T11:55:47;13.60;99.90
23721;DHT22;42950;52.134;5.578;2024-03-25T11:58:13;13.40;99.90
23721;DHT22;42950;52.134;5.578;2024-03-25T12:00:47;13.50;99.90
23721;DHT22;42950;52.134;5.578;2024-03-25T12:03:17;13.50;99.90
23721;DHT22;42950;52.134;5.578;2024-03-25T12:05:46;13.50;99.90
23721;DHT22;42950;52.134;5.578;2024-03-25T12:08:11;13.50;99.90
23721;DHT22;42950;52.134;5.578;2024-03-25T12:10:38;13.50;99.90
23721;DHT22;42950;52.134;5.578;2024-03-25T12:13:23;13.30;99.90
23721;DHT22;42950;52.134;5.578;2024-03-25T12:15:50;13.20;99.90
23721;DHT22;42950;52.134;5.578;2024-03-25T12:18:17;13.10;99.90
23721;DHT22;42950;52.134;5.578;2024-03-25T12:20:45;13.40;99.90
23721;DHT22;42950;52.134;5.578;2024-03-25T12:23:11;13.50;99.90
23721;DHT22;42950;52.134;5.578;2024-03-25T12:25:36;13.90;99.90
23721;DHT22;42950;52.134;5.578;2024-03-25T12:28:08;13.90;99.90
23721;DHT22;42950;52.134;5.578;2024-03-25T12:30:50;14.10;99.90
23721;DHT22;42950;52.134;5.578;2024-03-25T12:33:16;14.30;99.90
23721;DHT22;42950;52.134;5.578;2024-03-25T12:35:45;14.40;99.90
23721;DHT22;42950;52.134;5.578;2024-03-25T12:38:22;14.50;99.90
23721;DHT22;42950;52.134;5.578;2024-03-25T12:40:47;14.60;99.90
23721;DHT22;42950;52.134;5.578;2024-03-25T12:43:16;14.40;99.90
23721;DHT22;42950;52.134;5.578;2024-03-25T12:45:42;14.40;99.90
23721;DHT22;42950;52.134;5.578;2024-03-25T12:48:11;14.60;99.90
23721;DHT22;42950;52.134;5.578;2024-03-25T12:50:37;14.80;99.90
23721;DHT22;42950;52.134;5.578;2024-03-25T12:53:02;14.90;99.90
23721;DHT22;42950;52.134;5.578;2024-03-25T12:55:29;15.00;99.90
23721;DHT22;42950;52.134;5.578;2024-03-25T12:57:55;15.00;99.90
23721;DHT22;42950;52.134;5.578;2024-03-25T13:00:20;14.90;99.90
23721;DHT22;42950;52.134;5.578;2024-03-25T13:02:46;14.70;99.90
23721;DHT22;42950;52.134;5.578;2024-03-25T13:05:12;14.60;99.90
23721;DHT22;42950;52.134;5.578;2024-03-25T13:07:38;14.80;99.90
23721;DHT22;42950;52.134;5.578;2024-03-25T13:10:04;14.80;99.90
23721;DHT22;42950;52.134;5.578;2024-03-25T13:12:30;14.90;99.90
23721;DHT22;42950;52.134;5.578;2024-03-25T13:14:56;14.90;99.90
23721;DHT22;42950;52.134;5.578;2024-03-25T13:17:24;14.90;99.90
23721;DHT22;42950;52.134;5.578;2024-03-25T13:19:50;15.10;99.90
23721;DHT22;42950;52.134;5.578;2024-03-25T13:22:15;15.20;99.90
23721;DHT22;42950;52.134;5.578;2024-03-25T13:24:41;15.40;99.90
23721;DHT22;42950;52.134;5.578;2024-03-25T13:27:06;15.50;99.90
23721;DHT22;42950;52.134;5.578;2024-03-25T13:29:32;15.10;99.90
23721;DHT22;42950;52.134;5.578;2024-03-25T13:31:57;14.80;99.90
23721;DHT22;42950;52.134;5.578;2024-03-25T13:34:23;14.60;99.90
23721;DHT22;42950;52.134;5.578;2024-03-25T13:36:49;14.70;99.90
23721;DHT22;42950;52.134;5.578;2024-03-25T13:39:14;14.90;99.90
23721;DHT22;42950;52.134;5.578;2024-03-25T13:41:40;14.80;99.90
23721;DHT22;42950;52.134;5.578;2024-03-25T13:44:06;14.70;99.90
23721;DHT22;42950;52.134;5.578;2024-03-25T13:46:31;14.70;99.90
23721;DHT22;42950;52.134;5.578;2024-03-25T13:48:57;14.80;99.90
23721;DHT22;42950;52.134;5.578;2024-03-25T13:51:22;15.00;99.90
23721;DHT22;42950;52.134;5.578;2024-03-25T13:53:48;15.00;99.90
23721;DHT22;42950;52.134;5.578;2024-03-25T13:56:13;15.10;99.90
23721;DHT22;42950;52.134;5.578;2024-03-25T13:58:39;15.10;99.90
23721;DHT22;42950;52.134;5.578;2024-03-25T14:01:04;15.20;99.90
23721;DHT22;42950;52.134;5.578;2024-03-25T14:03:31;15.20;99.90
23721;DHT22;42950;52.134;5.578;2024-03-25T14:05:56;15.10;99.90
23721;DHT22;42950;52.134;5.578;2024-03-25T14:08:22;15.20;99.90
23721;DHT22;42950;52.134;5.578;2024-03-25T14:11:01;15.30;99.90
23721;DHT22;42950;52.134;5.578;2024-03-25T14:13:28;15.40;99.90
23721;DHT22;42950;52.134;5.578;2024-03-25T14:15:53;15.40;99.90
23721;DHT22;42950;52.134;5.578;2024-03-25T14:18:19;15.30;99.90
23721;DHT22;42950;52.134;5.578;2024-03-25T14:20:45;15.10;99.90
23721;DHT22;42950;52.134;5.578;2024-03-25T14:23:10;15.00;99.90
23721;DHT22;42950;52.134;5.578;2024-03-25T14:25:37;14.80;99.90
23721;DHT22;42950;52.134;5.578;2024-03-25T14:28:03;14.70;99.90
23721;DHT22;42950;52.134;5.578;2024-03-25T14:30:28;14.90;99.90
23721;DHT22;42950;52.134;5.578;2024-03-25T14:32:54;15.20;99.90
23721;DHT22;42950;52.134;5.578;2024-03-25T14:35:21;15.40;99.90
23721;DHT22;42950;52.134;5.578;2024-03-25T14:37:47;15.50;99.90
23721;DHT22;42950;52.134;5.578;2024-03-25T14:40:12;15.60;99.90
23721;DHT22;42950;52.134;5.578;2024-03-25T14:42:38;15.70;99.90
23721;DHT22;42950;52.134;5.578;2024-03-25T14:45:04;15.70;99.90
23721;DHT22;42950;52.134;5.578;2024-03-25T14:47:31;15.60;99.90
23721;DHT22;42950;52.134;5.578;2024-03-25T14:49:56;15.70;99.90
23721;DHT22;42950;52.134;5.578;2024-03-25T14:52:23;15.70;99.90
23721;DHT22;42950;52.134;5.578;2024-03-25T14:54:48;15.80;99.90
23721;DHT22;42950;52.134;5.578;2024-03-25T14:57:14;15.80;99.90
23721;DHT22;42950;52.134;5.578;2024-03-25T14:59:39;15.70;99.90
23721;DHT22;42950;52.134;5.578;2024-03-25T15:02:05;15.70;99.90
23721;DHT22;42950;52.134;5.578;2024-03-25T15:04:31;15.60;99.90
23721;DHT22;42950;52.134;5.578;2024-03-25T15:06:58;15.70;99.90
23721;DHT22;42950;52.134;5.578;2024-03-25T15:09:24;15.80;99.90
23721;DHT22;42950;52.134;5.578;2024-03-25T15:11:50;15.70;99.90
23721;DHT22;42950;52.134;5.578;2024-03-25T15:14:15;15.60;99.90
23721;DHT22;42950;52.134;5.578;2024-03-25T15:16:41;15.40;99.90
23721;DHT22;42950;52.134;5.578;2024-03-25T15:19:07;15.40;99.90
23721;DHT22;42950;52.134;5.578;2024-03-25T15:21:34;15.50;99.90
23721;DHT22;42950;52.134;5.578;2024-03-25T15:24:02;15.80;99.90
23721;DHT22;42950;52.134;5.578;2024-03-25T15:26:27;15.80;99.90
23721;DHT22;42950;52.134;5.578;2024-03-25T15:28:53;16.00;99.90
23721;DHT22;42950;52.134;5.578;2024-03-25T15:31:18;16.10;99.90
23721;DHT22;42950;52.134;5.578;2024-03-25T15:33:44;16.10;99.90
23721;DHT22;42950;52.134;5.578;2024-03-25T15:36:09;16.10;99.90